createdAt,value
2022-08-08T00:01:08.809Z,59.20
2022-08-08T00:03:48.253Z,59.50
2022-08-08T00:06:28.599Z,59.70
2022-08-08T00:09:09.247Z,60.00
2022-08-08T00:11:46.669Z,60.40
2022-08-08T00:14:57.134Z,60.90
2022-08-08T00:18:02.734Z,61.70
2022-08-08T00:20:34.278Z,61.80
2022-08-08T00:23:08.425Z,62.20
2022-08-08T00:25:46.460Z,62.60
2022-08-08T00:28:35.880Z,63.00
2022-08-08T00:32:14.953Z,63.30
2022-08-08T00:34:23.367Z,63.90
2022-08-08T00:37:03.870Z,64.10
2022-08-08T00:41:09.799Z,64.40
2022-08-08T00:43:19.254Z,64.60
2022-08-08T00:46:04.760Z,65.10
2022-08-08T00:49:37.037Z,65.60
2022-08-08T00:52:20.200Z,65.90
2022-08-08T00:55:08.913Z,66.10
2022-08-08T00:58:14.098Z,66.50
2022-08-08T01:00:52.955Z,66.60
2022-08-08T01:04:01.854Z,66.80
2022-08-08T01:07:14.346Z,67.10
2022-08-08T01:09:53.529Z,67.60
2022-08-08T01:12:53.568Z,67.90
2022-08-08T01:15:54.293Z,68.40
2022-08-08T01:18:55.332Z,68.50
2022-08-08T01:22:12.844Z,69.00
2022-08-08T01:25:14.257Z,69.30
2022-08-08T01:28:07.278Z,69.60
2022-08-08T01:31:23.702Z,70.00
2022-08-08T01:34:34.083Z,70.90
2022-08-08T01:37:56.870Z,70.60
2022-08-08T01:40:30.813Z,70.50
2022-08-08T01:43:06.777Z,70.80
2022-08-08T01:45:54.551Z,71.20
2022-08-08T01:48:38.420Z,71.50
2022-08-08T01:51:30.594Z,71.70
2022-08-08T01:55:45.008Z,72.20
2022-08-08T01:58:04.596Z,72.40
2022-08-08T02:00:19.551Z,73.00
2022-08-08T02:03:57.445Z,73.20
2022-08-08T02:06:05.515Z,73.60
2022-08-08T02:08:48.982Z,73.70
2022-08-08T02:11:59.628Z,74.10
2022-08-08T02:14:28.117Z,74.20
2022-08-08T02:17:04.332Z,74.30
2022-08-08T02:20:07.138Z,74.50
2022-08-08T02:22:53.839Z,74.70
2022-08-08T02:25:33.086Z,75.10
2022-08-08T02:28:25.983Z,75.10
2022-08-08T02:31:59.307Z,75.40
2022-08-08T02:34:32.677Z,75.70
2022-08-08T02:37:09.979Z,75.90
2022-08-08T02:40:05.418Z,76.10
2022-08-08T02:43:00.732Z,76.50
2022-08-08T02:46:18.479Z,76.60
2022-08-08T02:49:27.617Z,76.70
2022-08-08T02:52:34.815Z,77.20
2022-08-08T02:55:43.058Z,77.40
2022-08-08T02:58:57.223Z,77.60
2022-08-08T03:01:58.078Z,78.20
2022-08-08T03:05:10.822Z,78.40
2022-08-08T03:08:13.581Z,78.50
2022-08-08T03:11:47.893Z,79.00
2022-08-08T03:16:00.782Z,79.00
2022-08-08T03:17:39.643Z,79.50
2022-08-08T03:20:10.562Z,79.80
2022-08-08T03:22:46.542Z,80.70
2022-08-08T03:25:17.875Z,80.10
2022-08-08T03:27:56.323Z,80.30
2022-08-08T03:30:25.749Z,80.60
2022-08-08T03:33:54.770Z,80.70
2022-08-08T03:36:01.513Z,81.10
2022-08-08T03:38:57.366Z,81.30
2022-08-08T03:42:12.359Z,81.70
2022-08-08T03:44:07.170Z,81.70
2022-08-08T03:46:47.300Z,81.90
2022-08-08T03:49:59.091Z,82.00
2022-08-08T03:52:08.523Z,82.30
2022-08-08T03:55:02.608Z,82.50
2022-08-08T03:58:34.371Z,82.80
2022-08-08T04:00:21.851Z,82.90
2022-08-08T04:03:00.401Z,83.40
2022-08-08T04:05:29.743Z,83.90
2022-08-08T04:07:58.630Z,84.10
2022-08-08T04:10:32.231Z,84.70
2022-08-08T04:13:00.528Z,84.70
2022-08-08T04:15:38.384Z,84.50
2022-08-08T04:18:06.816Z,85.20
2022-08-08T04:20:44.370Z,85.30
2022-08-08T04:23:15.313Z,85.00
2022-08-08T04:25:44.659Z,85.20
2022-08-08T04:28:40.223Z,85.10
2022-08-08T04:31:04.615Z,85.30
2022-08-08T04:33:41.822Z,85.50
2022-08-08T04:36:10.053Z,85.80
2022-08-08T04:38:38.390Z,87.00
2022-08-08T04:41:17.623Z,87.90
2022-08-08T04:43:54.272Z,90.10
2022-08-08T04:46:25.418Z,91.10
2022-08-08T04:48:58.928Z,91.20
2022-08-08T04:51:54.815Z,90.80
2022-08-08T04:54:39.427Z,89.80
2022-08-08T04:57:05.960Z,86.60
2022-08-08T04:59:42.424Z,81.20
2022-08-08T05:02:10.606Z,77.20
2022-08-08T05:04:44.459Z,72.40
2022-08-08T05:07:14.823Z,68.30
2022-08-08T05:09:43.295Z,64.80
2022-08-08T05:12:20.840Z,60.90
2022-08-08T05:14:49.404Z,58.40
2022-08-08T05:17:20.332Z,55.80
2022-08-08T05:20:08.911Z,52.90
2022-08-08T05:22:37.337Z,51.60
2022-08-08T05:25:06.534Z,50.10
2022-08-08T05:27:41.496Z,48.30
2022-08-08T05:30:12.703Z,46.80
2022-08-08T05:32:41.257Z,45.10
2022-08-08T05:35:13.601Z,43.80
2022-08-08T05:37:52.860Z,41.60
2022-08-08T05:40:27.867Z,40.80
2022-08-08T05:43:38.161Z,40.00
2022-08-08T05:46:03.174Z,38.40
2022-08-08T05:48:34.591Z,37.60
2022-08-08T05:51:15.285Z,37.20
2022-08-08T05:54:25.992Z,37.10
2022-08-08T05:56:42.198Z,36.90
2022-08-08T05:59:59.910Z,36.60
2022-08-08T06:02:34.437Z,35.90
2022-08-08T06:05:06.690Z,36.10
2022-08-08T06:08:00.174Z,37.60
2022-08-08T06:10:33.534Z,35.30
2022-08-08T06:13:02.781Z,33.90
2022-08-08T06:15:50.589Z,32.70
2022-08-08T06:18:22.453Z,32.40
2022-08-08T06:20:54.673Z,33.30
2022-08-08T06:23:29.158Z,32.90
2022-08-08T06:26:43.577Z,32.50
2022-08-08T06:29:26.222Z,31.50
2022-08-08T06:32:10.282Z,30.00
2022-08-08T06:35:11.903Z,29.40
2022-08-08T06:37:46.352Z,28.90
2022-08-08T06:40:19.783Z,28.70
2022-08-08T06:42:56.337Z,28.50
2022-08-08T06:45:25.291Z,28.10
2022-08-08T06:48:00.722Z,27.80
2022-08-08T06:50:33.968Z,27.20
2022-08-08T06:53:13.950Z,26.90
2022-08-08T06:55:47.288Z,26.60
2022-08-08T06:58:30.499Z,26.10
2022-08-08T07:01:01.841Z,26.00
2022-08-08T07:04:36.882Z,25.60
2022-08-08T07:06:50.366Z,25.20
2022-08-08T07:09:21.746Z,25.00
2022-08-08T07:11:51.961Z,24.80
2022-08-08T07:14:24.492Z,24.70
2022-08-08T07:17:09.588Z,24.60
2022-08-08T07:19:53.996Z,24.70
2022-08-08T07:22:38.613Z,24.70
2022-08-08T07:25:11.001Z,24.60
2022-08-08T07:28:02.170Z,24.60
2022-08-08T07:30:34.994Z,24.10
2022-08-08T07:33:03.033Z,24.10
2022-08-08T07:35:35.755Z,24.40
2022-08-08T07:38:18.504Z,24.10
2022-08-08T07:40:50.558Z,23.90
2022-08-08T07:43:23.172Z,23.70
2022-08-08T07:46:24.068Z,23.30
2022-08-08T07:48:53.721Z,23.00
2022-08-08T07:51:45.379Z,22.90
2022-08-08T07:54:26.750Z,22.50
2022-08-08T07:57:08.943Z,22.10
2022-08-08T07:59:45.218Z,22.40
2022-08-08T08:02:34.281Z,23.30
2022-08-08T08:05:14.895Z,23.00
2022-08-08T08:07:53.085Z,23.10
2022-08-08T08:10:30.628Z,23.30
2022-08-08T08:13:25.631Z,23.00
2022-08-08T08:16:11.402Z,22.20
2022-08-08T08:18:51.669Z,22.40
2022-08-08T08:21:44.409Z,22.80
2022-08-08T08:24:15.962Z,23.30
2022-08-08T08:26:52.807Z,24.40
2022-08-08T08:29:23.981Z,23.70
2022-08-08T08:31:58.224Z,24.30
2022-08-08T08:34:31.842Z,24.60
2022-08-08T08:37:00.885Z,24.10
2022-08-08T08:39:59.537Z,23.10
2022-08-08T08:42:29.392Z,22.00
2022-08-08T08:45:10.373Z,22.10
2022-08-08T08:47:53.076Z,22.00
2022-08-08T08:50:33.390Z,22.30
2022-08-08T08:53:54.141Z,22.30
2022-08-08T08:55:55.449Z,21.80
2022-08-08T08:58:35.417Z,21.70
2022-08-08T09:01:09.573Z,22.40
2022-08-08T09:03:47.724Z,22.70
2022-08-08T09:06:28.475Z,22.50
2022-08-08T09:09:07.090Z,21.90
2022-08-08T09:11:47.670Z,21.50
2022-08-08T09:14:26.374Z,20.90
2022-08-08T09:16:55.561Z,20.80
2022-08-08T09:21:57.979Z,20.90
2022-08-08T09:22:19.631Z,21.80
2022-08-08T09:24:55.929Z,20.80
2022-08-08T09:27:55.786Z,21.30
2022-08-08T09:30:17.895Z,21.90
2022-08-08T09:33:11.920Z,21.70
2022-08-08T09:35:49.059Z,21.20
2022-08-08T09:38:32.117Z,21.30
2022-08-08T09:41:07.106Z,21.30
2022-08-08T09:44:04.746Z,21.10
2022-08-08T09:46:36.306Z,20.50
2022-08-08T09:49:41.295Z,20.20
2022-08-08T09:52:07.127Z,19.70
2022-08-08T09:54:44.203Z,19.90
2022-08-08T09:57:17.456Z,20.00
2022-08-08T10:00:27.561Z,19.70
2022-08-08T10:02:41.807Z,20.30
2022-08-08T10:05:16.229Z,20.50
2022-08-08T10:07:59.744Z,19.90
2022-08-08T10:10:30.113Z,20.50
2022-08-08T10:13:14.366Z,20.20
2022-08-08T10:16:00.464Z,19.70
2022-08-08T10:18:30.814Z,19.40
2022-08-08T10:21:22.727Z,19.30
2022-08-08T10:23:58.607Z,18.80
2022-08-08T10:26:58.563Z,18.90
2022-08-08T10:29:25.027Z,19.00
2022-08-08T10:32:17.357Z,17.80
2022-08-08T10:34:58.864Z,18.10
2022-08-08T10:37:31.641Z,18.10
2022-08-08T10:40:16.345Z,18.00
2022-08-08T10:42:46.051Z,18.00
2022-08-08T10:45:16.458Z,18.20
2022-08-08T10:47:55.084Z,18.50
2022-08-08T10:50:24.778Z,18.70
2022-08-08T10:53:03.553Z,18.90
2022-08-08T10:55:41.037Z,18.70
2022-08-08T10:58:11.806Z,19.20
2022-08-08T11:00:53.137Z,20.60
2022-08-08T11:04:00.460Z,20.50
2022-08-08T11:06:34.502Z,21.70
2022-08-08T11:09:15.347Z,21.90
2022-08-08T11:12:05.731Z,22.30
2022-08-08T11:14:36.309Z,22.80
2022-08-08T11:17:04.677Z,23.40
2022-08-08T11:19:35.873Z,24.10
2022-08-08T11:22:05.141Z,24.80
2022-08-08T11:24:35.834Z,25.60
2022-08-08T11:27:19.143Z,26.40
2022-08-08T11:30:18.711Z,26.70
2022-08-08T11:32:40.437Z,27.40
2022-08-08T11:35:27.115Z,28.50
2022-08-08T11:38:35.121Z,29.10
2022-08-08T11:40:51.667Z,29.00
2022-08-08T11:43:23.802Z,29.10
2022-08-08T11:46:11.859Z,30.00
2022-08-08T11:48:44.835Z,30.30
2022-08-08T11:51:38.355Z,30.20
2022-08-08T11:54:27.043Z,30.60
2022-08-08T11:56:56.659Z,30.60
2022-08-08T11:59:58.580Z,31.00
2022-08-08T12:02:32.206Z,30.50
2022-08-08T12:05:12.591Z,30.80
2022-08-08T12:07:53.115Z,31.20
2022-08-08T12:10:23.229Z,31.50
2022-08-08T12:13:00.639Z,31.40
2022-08-08T12:15:30.465Z,31.40
2022-08-08T12:18:16.097Z,31.50
2022-08-08T12:20:49.917Z,31.00
2022-08-08T12:23:43.034Z,30.90
2022-08-08T12:26:28.626Z,31.00
2022-08-08T12:29:21.502Z,31.50
2022-08-08T12:32:02.685Z,31.90
2022-08-08T12:34:38.528Z,32.00
2022-08-08T12:37:08.558Z,31.80
2022-08-08T12:40:00.602Z,31.30
2022-08-08T12:42:27.373Z,31.40
2022-08-08T12:45:58.137Z,32.10
2022-08-08T12:48:10.321Z,32.30
2022-08-08T12:50:51.922Z,32.40
2022-08-08T12:53:24.837Z,32.50
2022-08-08T12:56:18.667Z,32.30
2022-08-08T12:58:52.181Z,32.40
2022-08-08T13:01:35.238Z,32.50
2022-08-08T13:04:18.691Z,32.10
2022-08-08T13:06:54.592Z,32.10
2022-08-08T13:09:43.275Z,31.80
2022-08-08T13:12:34.942Z,31.50
2022-08-08T13:15:04.599Z,31.40
2022-08-08T13:18:08.184Z,31.70
2022-08-08T13:20:23.981Z,32.00
2022-08-08T13:23:30.182Z,32.20
2022-08-08T13:25:51.142Z,32.30
2022-08-08T13:28:32.177Z,31.90
2022-08-08T13:31:01.616Z,31.90
2022-08-08T13:33:42.502Z,31.80
2022-08-08T13:36:11.995Z,32.20
2022-08-08T13:38:40.167Z,32.50
2022-08-08T13:41:17.045Z,32.50
2022-08-08T13:43:49.691Z,32.60
2022-08-08T13:46:26.434Z,33.20
2022-08-08T13:49:11.233Z,33.30
2022-08-08T13:51:56.981Z,33.60
2022-08-08T13:54:29.455Z,33.30
2022-08-08T13:57:12.418Z,33.30
2022-08-08T13:59:48.188Z,33.60
2022-08-08T14:02:20.736Z,34.00
2022-08-08T14:04:57.302Z,33.90
2022-08-08T14:07:35.314Z,34.00
2022-08-08T14:10:11.978Z,34.00
2022-08-08T14:12:46.660Z,34.00
2022-08-08T14:15:31.418Z,34.40
2022-08-08T14:18:35.535Z,34.20
2022-08-08T14:21:03.585Z,34.40
2022-08-08T14:24:04.533Z,34.60
2022-08-08T14:26:29.470Z,34.50
2022-08-08T14:29:01.502Z,34.70
2022-08-08T14:32:07.132Z,35.00
2022-08-08T14:34:29.688Z,35.00
2022-08-08T14:36:57.916Z,35.00
2022-08-08T14:39:48.027Z,34.80
2022-08-08T14:42:16.756Z,34.60
2022-08-08T14:44:55.232Z,35.00
2022-08-08T14:47:25.201Z,35.10
2022-08-08T14:50:10.782Z,35.40
2022-08-08T14:52:48.370Z,35.60
2022-08-08T14:55:22.595Z,35.80
2022-08-08T14:58:06.197Z,36.10
2022-08-08T15:00:40.314Z,35.80
2022-08-08T15:03:14.853Z,36.20
2022-08-08T15:05:53.701Z,35.70
2022-08-08T15:08:34.806Z,36.40
2022-08-08T15:11:11.582Z,35.60
2022-08-08T15:14:01.761Z,35.80
2022-08-08T15:16:34.623Z,36.20
2022-08-08T15:19:04.909Z,36.20
2022-08-08T15:21:32.661Z,36.20
2022-08-08T15:24:00.915Z,36.20
2022-08-08T15:26:29.520Z,36.40
2022-08-08T15:28:58.253Z,36.30
2022-08-08T15:32:03.069Z,36.40
2022-08-08T15:34:29.262Z,36.30
2022-08-08T15:37:01.926Z,36.50
2022-08-08T15:39:38.081Z,37.10
2022-08-08T15:42:10.369Z,36.10
2022-08-08T15:44:42.173Z,36.20
2022-08-08T15:47:16.106Z,36.30
2022-08-08T15:49:49.601Z,36.30
2022-08-08T15:52:21.477Z,35.90
2022-08-08T15:54:51.863Z,36.10
2022-08-08T15:57:21.176Z,36.10
2022-08-08T16:00:06.807Z,36.50
2022-08-08T16:02:37.703Z,36.80
2022-08-08T16:05:21.001Z,36.80
2022-08-08T16:07:52.638Z,36.80
2022-08-08T16:13:10.365Z,36.90
2022-08-08T16:13:30.357Z,37.00
2022-08-08T16:16:09.373Z,36.90
2022-08-08T16:18:41.421Z,36.80
2022-08-08T16:21:25.887Z,36.60
2022-08-08T16:23:55.862Z,36.60
2022-08-08T16:26:34.315Z,36.60
2022-08-08T16:29:08.155Z,36.60
2022-08-08T16:31:40.771Z,36.80
2022-08-08T16:34:09.650Z,36.80
2022-08-08T16:36:40.842Z,36.80
2022-08-08T16:39:28.005Z,37.00
2022-08-08T16:42:01.265Z,37.20
2022-08-08T16:44:34.366Z,37.20
2022-08-08T16:47:18.111Z,37.30
2022-08-08T16:49:49.667Z,37.20
2022-08-08T16:55:06.463Z,37.50
2022-08-08T16:55:52.410Z,37.60
2022-08-08T16:58:15.684Z,37.60
2022-08-08T17:00:49.112Z,37.80
2022-08-08T17:03:25.079Z,38.20
2022-08-08T17:06:36.982Z,38.30
2022-08-08T17:08:57.369Z,38.40
2022-08-08T17:11:27.945Z,38.40
2022-08-08T17:14:01.366Z,38.20
2022-08-08T17:16:29.934Z,38.40
2022-08-08T17:19:00.518Z,38.50
2022-08-08T17:21:37.432Z,38.50
2022-08-08T17:24:26.976Z,39.00
2022-08-08T17:26:57.878Z,38.40
2022-08-08T17:29:27.878Z,38.50
2022-08-08T17:31:57.577Z,38.60
2022-08-08T17:34:48.507Z,38.70
2022-08-08T17:37:21.375Z,38.60
2022-08-08T17:40:10.549Z,39.00
2022-08-08T17:42:39.078Z,39.00
2022-08-08T17:45:14.306Z,38.90
2022-08-08T17:47:51.243Z,39.00
2022-08-08T17:50:19.883Z,39.00
2022-08-08T17:52:48.013Z,39.10
2022-08-08T17:56:06.065Z,39.20
2022-08-08T17:58:05.284Z,39.30
2022-08-08T18:00:33.322Z,39.40
2022-08-08T18:03:13.101Z,39.60
2022-08-08T18:05:52.859Z,39.70
2022-08-08T18:08:38.181Z,39.80
2022-08-08T18:11:15.135Z,39.80
2022-08-08T18:13:45.435Z,39.90
2022-08-08T18:16:16.697Z,40.00
2022-08-08T18:18:54.102Z,40.30
2022-08-08T18:21:58.743Z,40.40
2022-08-08T18:24:19.399Z,40.50
2022-08-08T18:26:53.856Z,40.80
2022-08-08T18:29:29.663Z,40.90
2022-08-08T18:31:58.862Z,40.90
2022-08-08T18:34:27.986Z,41.00
2022-08-08T18:36:56.165Z,41.30
2022-08-08T18:39:28.091Z,41.40
2022-08-08T18:42:02.999Z,41.60
2022-08-08T18:44:33.134Z,41.90
2022-08-08T18:47:03.702Z,42.10
2022-08-08T18:49:40.965Z,42.30
2022-08-08T18:52:22.565Z,42.50
2022-08-08T18:55:00.529Z,42.80
2022-08-08T18:57:42.131Z,43.00
2022-08-08T19:00:16.703Z,43.10
2022-08-08T19:02:55.854Z,43.50
2022-08-08T19:05:32.343Z,43.60
2022-08-08T19:08:25.429Z,43.70
2022-08-08T19:10:59.287Z,43.70
2022-08-08T19:13:52.860Z,43.90
2022-08-08T19:16:18.738Z,44.10
2022-08-08T19:18:53.379Z,44.20
2022-08-08T19:21:30.419Z,44.40
2022-08-08T19:23:59.128Z,44.50
2022-08-08T19:26:30.201Z,44.80
2022-08-08T19:29:00.616Z,44.90
2022-08-08T19:31:31.507Z,45.00
2022-08-08T19:34:35.981Z,45.10
2022-08-08T19:36:53.244Z,45.40
2022-08-08T19:39:23.272Z,45.50
2022-08-08T19:41:51.607Z,45.70
2022-08-08T19:44:26.574Z,45.90
2022-08-08T19:47:04.434Z,46.10
2022-08-08T19:49:37.861Z,46.30
2022-08-08T19:52:07.025Z,46.40
2022-08-08T19:54:35.025Z,46.60
2022-08-08T19:57:07.528Z,46.90
2022-08-08T19:59:39.248Z,47.00
2022-08-08T20:02:07.241Z,47.20
2022-08-08T20:04:38.882Z,47.40
2022-08-08T20:08:28.279Z,47.60
2022-08-08T20:09:58.915Z,47.70
2022-08-08T20:12:32.445Z,47.90
2022-08-08T20:15:10.382Z,48.10
2022-08-08T20:17:45.047Z,48.30
2022-08-08T20:20:19.133Z,48.50
2022-08-08T20:22:53.947Z,48.60
2022-08-08T20:25:29.833Z,48.70
2022-08-08T20:28:06.405Z,48.80
2022-08-08T20:30:52.678Z,49.10
2022-08-08T20:36:05.310Z,49.30
2022-08-08T20:38:37.418Z,49.40
2022-08-08T20:41:17.479Z,49.50
2022-08-08T20:43:50.051Z,49.60
2022-08-08T20:46:25.308Z,49.80
2022-08-08T20:48:55.552Z,50.00
2022-08-08T20:51:27.263Z,50.10
2022-08-08T20:54:04.814Z,50.30
2022-08-08T20:57:17.497Z,50.40
2022-08-08T20:59:32.513Z,50.60
2022-08-08T21:02:12.809Z,50.80
2022-08-08T21:04:43.721Z,51.00
2022-08-08T21:07:17.812Z,51.30
2022-08-08T21:10:12.263Z,51.40
2022-08-08T21:12:41.441Z,51.50
2022-08-08T21:15:16.769Z,51.80
2022-08-08T21:18:02.752Z,52.00
2022-08-08T21:20:33.990Z,52.50
2022-08-08T21:23:02.834Z,52.00
2022-08-08T21:25:33.071Z,52.10
2022-08-08T21:28:16.016Z,52.30
2022-08-08T21:30:49.767Z,52.50
2022-08-08T21:33:21.803Z,52.70
2022-08-08T21:36:14.126Z,52.90
2022-08-08T21:38:37.671Z,53.10
2022-08-08T21:41:05.618Z,53.30
2022-08-08T21:43:34.980Z,53.60
2022-08-08T21:48:01.729Z,53.90
2022-08-08T21:48:54.812Z,54.00
2022-08-08T21:54:30.895Z,54.30
2022-08-08T21:54:34.186Z,54.50
2022-08-08T21:57:03.018Z,54.70
2022-08-08T22:00:02.986Z,55.10
2022-08-08T22:02:23.358Z,55.30
2022-08-08T22:04:56.088Z,55.50
2022-08-08T22:07:39.969Z,55.70
2022-08-08T22:10:28.249Z,56.00
2022-08-08T22:13:17.400Z,56.30
2022-08-08T22:15:58.426Z,56.60
2022-08-08T22:18:27.907Z,56.80
2022-08-08T22:20:59.403Z,57.10
2022-08-08T22:23:32.518Z,57.30
2022-08-08T22:26:28.626Z,57.50
2022-08-08T22:29:04.770Z,57.80
2022-08-08T22:31:58.265Z,58.10
2022-08-08T22:34:30.410Z,58.20
2022-08-08T22:37:00.002Z,58.60
2022-08-08T22:39:45.827Z,58.80
2022-08-08T22:42:27.064Z,59.10
2022-08-08T22:44:59.650Z,59.20
2022-08-08T22:47:34.296Z,60.00
2022-08-08T22:50:09.633Z,59.60
2022-08-08T22:54:19.552Z,59.80
2022-08-08T22:55:59.351Z,60.10
2022-08-08T22:58:31.281Z,60.30
2022-08-08T23:02:00.906Z,60.80
2022-08-08T23:03:54.229Z,60.80
2022-08-08T23:06:22.798Z,61.30
2022-08-08T23:08:55.508Z,61.60
2022-08-08T23:11:31.010Z,61.80
2022-08-08T23:14:17.131Z,62.10
2022-08-08T23:16:54.446Z,62.60
2022-08-08T23:19:27.519Z,63.00
2022-08-08T23:22:01.109Z,63.30
2022-08-08T23:24:36.020Z,63.70
2022-08-08T23:27:05.879Z,64.00
2022-08-08T23:29:33.906Z,64.30
2022-08-08T23:32:04.563Z,64.50
2022-08-08T23:34:33.387Z,64.80
2022-08-08T23:37:03.479Z,65.20
2022-08-08T23:39:41.831Z,65.60
2022-08-08T23:42:17.615Z,65.90
2022-08-08T23:44:49.371Z,66.20
2022-08-08T23:49:07.773Z,66.40
2022-08-08T23:50:29.768Z,66.60
2022-08-08T23:52:58.796Z,67.00
2022-08-08T23:55:33.297Z,67.50
2022-08-08T23:58:09.818Z,67.80
